Time;durP1;ratioP1;P1;durP2;ratioP2;P2;SDS_P1;SDS_P2;PMS_P1;PMS_P2;Temp;Humidity;BMP_temperature;BMP_pressure;BME280_temperature;BME280_humidity;BME280_pressure;Samples;Min_cycle;Max_cycle;Signal;HPM_P1;HPM_P2
2022/05/29 00:00:15;;;;;;;24.75;15.00;;;5.70;99.90;;;;;;5030616;28;20047;-68
2022/05/29 00:02:41;;;;;;;24.20;14.27;;;5.70;99.90;;;;;;5020040;28;20026;-72
2022/05/29 00:05:08;;;;;;;21.45;13.02;;;5.70;99.90;;;;;;5009564;28;20113;-68
2022/05/29 00:07:34;;;;;;;26.52;14.75;;;5.60;99.90;;;;;;5009517;28;20018;-68
2022/05/29 00:10:04;;;;;;;25.52;13.73;;;5.60;99.90;;;;;;5010711;28;20026;-68
2022/05/29 00:12:29;;;;;;;21.63;14.95;;;5.60;99.90;;;;;;5010645;28;20022;-68
2022/05/29 00:14:55;;;;;;;20.00;13.75;;;5.60;99.90;;;;;;5010570;28;20091;-71
2022/05/29 00:17:21;;;;;;;20.83;11.65;;;5.60;99.90;;;;;;5010545;28;20018;-69
2022/05/29 00:19:47;;;;;;;20.80;13.15;;;5.50;99.90;;;;;;5010653;28;20018;-71
2022/05/29 00:22:16;;;;;;;23.05;11.40;;;5.40;99.90;;;;;;5010677;28;20033;-68
2022/05/29 00:24:45;;;;;;;18.27;9.90;;;5.40;99.90;;;;;;5025687;28;20049;-68
2022/05/29 00:27:11;;;;;;;14.10;9.45;;;5.40;99.90;;;;;;5030157;28;20026;-71
2022/05/29 00:29:38;;;;;;;19.23;10.40;;;5.30;99.90;;;;;;5028986;28;20032;-71
2022/05/29 00:32:05;;;;;;;17.85;9.70;;;5.30;99.90;;;;;;5030360;28;20029;-68
2022/05/29 00:34:32;;;;;;;15.95;8.75;;;5.20;99.90;;;;;;5030074;28;20140;-72
2022/05/29 00:36:58;;;;;;;13.27;9.27;;;5.20;99.90;;;;;;5032601;28;20443;-72
2022/05/29 00:39:25;;;;;;;15.82;8.80;;;5.20;99.90;;;;;;5033654;28;20033;-72
2022/05/29 00:41:51;;;;;;;14.45;9.15;;;5.20;99.90;;;;;;5033737;28;20025;-69
2022/05/29 00:44:29;;;;;;;11.80;8.23;;;5.10;99.90;;;;;;5033318;28;20033;-68
2022/05/29 00:46:59;;;;;;;16.15;9.38;;;5.10;99.90;;;;;;5033556;28;20025;-68
2022/05/29 00:49:25;;;;;;;13.77;9.45;;;5.10;99.90;;;;;;5032117;28;20034;-68
2022/05/29 00:52:05;;;;;;;16.70;8.50;;;5.10;99.90;;;;;;5033640;28;20025;-72
2022/05/29 00:54:42;;;;;;;14.77;8.23;;;5.00;99.90;;;;;;5048499;28;20034;-71
2022/05/29 00:57:14;;;;;;;10.80;7.85;;;5.00;99.90;;;;;;5033583;28;20420;-71
2022/05/29 00:59:42;;;;;;;11.63;7.18;;;4.90;99.90;;;;;;5033556;28;20100;-68
2022/05/29 01:02:08;;;;;;;11.30;7.43;;;4.90;99.90;;;;;;5033188;28;20040;-68
2022/05/29 01:04:35;;;;;;;14.25;8.15;;;4.90;99.90;;;;;;5033228;28;20029;-71
2022/05/29 01:07:06;;;;;;;10.48;7.72;;;4.80;99.90;;;;;;5033365;28;20025;-68
2022/05/29 01:09:31;;;;;;;12.35;8.27;;;4.80;99.90;;;;;;5033244;28;20104;-71
2022/05/29 01:12:12;;;;;;;11.82;8.05;;;4.80;99.90;;;;;;5033059;28;20058;-72
2022/05/29 01:15:19;;;;;;;11.75;7.72;;;4.70;99.90;;;;;;5033056;28;20042;-71
2022/05/29 01:18:11;;;;;;;9.57;6.82;;;4.70;99.90;;;;;;5053051;28;20439;-68
2022/05/29 01:20:48;;;;;;;14.00;8.10;;;4.70;99.90;;;;;;5033210;28;20025;-67
2022/05/29 01:23:36;;;;;;;11.80;6.68;;;4.60;99.90;;;;;;5029233;28;20026;-71
2022/05/29 01:26:20;;;;;;;11.10;7.70;;;4.60;99.90;;;;;;5012091;28;20058;-71
2022/05/29 01:28:45;;;;;;;9.82;6.90;;;4.50;99.90;;;;;;5013263;28;20060;-71
2022/05/29 01:31:22;;;;;;;9.85;7.20;;;4.40;99.90;;;;;;5013079;28;20467;-71
2022/05/29 01:34:12;;;;;;;9.73;6.18;;;4.40;99.90;;;;;;5013013;28;20048;-68
2022/05/29 01:36:49;;;;;;;10.15;6.88;;;4.30;99.90;;;;;;5013410;28;20044;-71
2022/05/29 01:39:30;;;;;;;12.00;7.40;;;4.30;99.90;;;;;;5012569;28;20033;-72
2022/05/29 01:41:59;;;;;;;10.00;6.55;;;4.30;99.90;;;;;;5011686;28;20026;-71
2022/05/29 01:45:05;;;;;;;8.38;6.00;;;4.20;99.90;;;;;;5012721;28;20033;-68
2022/05/29 01:47:45;;;;;;;9.27;5.95;;;4.20;99.90;;;;;;5011225;28;20029;-68
2022/05/29 01:50:19;;;;;;;12.32;6.78;;;4.10;99.90;;;;;;5012704;28;20025;-71
2022/05/29 01:52:54;;;;;;;13.32;7.78;;;4.10;99.90;;;;;;5013068;28;20045;-68
2022/05/29 01:55:32;;;;;;;13.20;7.97;;;4.00;99.90;;;;;;5012933;28;20034;-68
2022/05/29 01:58:07;;;;;;;10.25;6.85;;;4.00;99.90;;;;;;5012624;28;20030;-68
2022/05/29 02:00:33;;;;;;;11.07;7.18;;;3.90;99.90;;;;;;5012630;28;20030;-68
2022/05/29 02:03:17;;;;;;;12.45;7.80;;;3.90;99.90;;;;;;5025124;28;20018;-71
2022/05/29 02:05:54;;;;;;;11.38;6.60;;;3.90;99.90;;;;;;5032407;28;20040;-68
2022/05/29 02:08:32;;;;;;;8.25;6.68;;;3.90;99.90;;;;;;5030912;28;20431;-71
2022/05/29 02:11:04;;;;;;;9.70;6.97;;;3.90;99.90;;;;;;5030975;28;20032;-71
2022/05/29 02:14:00;;;;;;;9.98;6.93;;;3.90;99.90;;;;;;5032367;28;20053;-68
2022/05/29 02:16:47;;;;;;;11.23;6.53;;;3.90;99.90;;;;;;5031978;28;20030;-71
2022/05/29 02:19:24;;;;;;;10.63;6.43;;;3.80;99.90;;;;;;5032198;28;20390;-71
2022/05/29 02:22:01;;;;;;;8.38;6.32;;;3.80;99.90;;;;;;5032235;28;20040;-71
2022/05/29 02:24:33;;;;;;;11.13;7.90;;;3.80;99.90;;;;;;5017774;28;20461;-68
2022/05/29 02:27:03;;;;;;;8.35;5.63;;;3.70;99.90;;;;;;5012420;28;20072;-71
2022/05/29 02:29:29;;;;;;;8.40;6.60;;;3.70;99.90;;;;;;5026180;28;20041;-67
2022/05/29 02:32:13;;;;;;;12.80;7.38;;;3.60;99.90;;;;;;5030715;28;20021;-71
2022/05/29 02:35:06;;;;;;;10.65;6.85;;;3.50;99.90;;;;;;5031968;28;20033;-68
2022/05/29 02:37:42;;;;;;;9.23;6.60;;;3.50;99.90;;;;;;5032167;28;20471;-68
2022/05/29 02:40:25;;;;;;;9.77;6.53;;;3.50;99.90;;;;;;5030633;28;20041;-71
2022/05/29 02:42:59;;;;;;;8.52;6.47;;;3.50;99.90;;;;;;5031927;28;20106;-68
2022/05/29 02:45:43;;;;;;;7.68;6.00;;;3.40;99.90;;;;;;5031825;28;20030;-68
2022/05/29 02:48:28;;;;;;;9.63;6.75;;;3.40;99.90;;;;;;5031874;28;20367;-67
2022/05/29 02:51:14;;;;;;;11.32;6.68;;;3.30;99.90;;;;;;5030368;28;20055;-71
2022/05/29 02:53:44;;;;;;;11.50;6.60;;;3.30;99.90;;;;;;5117445;27;20014;-71
2022/05/29 02:56:11;;;;;;;11.85;7.07;;;3.30;99.90;;;;;;5031493;28;20124;-71
2022/05/29 02:58:39;;;;;;;12.00;7.93;;;3.30;99.90;;;;;;5030759;28;20575;-71
2022/05/29 03:01:28;;;;;;;11.82;7.82;;;3.20;99.90;;;;;;5031445;28;20491;-71
2022/05/29 03:04:03;;;;;;;13.45;8.25;;;3.20;99.90;;;;;;5022082;28;20514;-68
2022/05/29 03:06:49;;;;;;;13.35;8.57;;;3.20;99.90;;;;;;5011667;28;20025;-67
2022/05/29 03:09:29;;;;;;;10.68;7.07;;;3.20;99.90;;;;;;5011684;28;20062;-67
2022/05/29 03:11:55;;;;;;;8.57;6.53;;;3.20;99.90;;;;;;5011611;28;20026;-68
2022/05/29 03:14:47;;;;;;;13.05;7.05;;;3.20;99.90;;;;;;5011564;28;20483;-68
2022/05/29 03:17:39;;;;;;;10.98;7.03;;;3.20;99.90;;;;;;5011585;28;20050;-67
2022/05/29 03:20:14;;;;;;;10.15;6.32;;;3.30;99.90;;;;;;5002664;28;20037;-71
2022/05/29 03:22:49;;;;;;;8.95;6.60;;;3.40;99.90;;;;;;5011379;28;20160;-71
2022/05/29 03:25:36;;;;;;;11.43;5.97;;;3.60;99.90;;;;;;5011335;28;20066;-71
2022/05/29 03:28:05;;;;;;;10.07;6.20;;;3.90;99.90;;;;;;5011322;28;20029;-66
2022/05/29 03:30:35;;;;;;;7.63;5.82;;;4.10;99.90;;;;;;5011368;28;20044;-66
2022/05/29 03:33:04;;;;;;;11.43;8.05;;;4.30;99.90;;;;;;5010366;28;20034;-66
2022/05/29 03:35:50;;;;;;;12.15;7.22;;;4.40;99.90;;;;;;5011249;28;20034;-66
2022/05/29 03:38:16;;;;;;;10.02;8.40;;;4.50;99.90;;;;;;5011413;28;20037;-69
2022/05/29 03:40:41;;;;;;;11.07;7.13;;;4.50;99.90;;;;;;5011105;28;20026;-68
2022/05/29 03:43:07;;;;;;;11.55;7.00;;;4.80;99.90;;;;;;5009969;28;20030;-66
2022/05/29 03:45:32;;;;;;;10.30;7.03;;;5.00;99.90;;;;;;5031657;27;20393;-69
2022/05/29 03:47:58;;;;;;;11.05;7.55;;;5.30;99.90;;;;;;5029455;28;20014;-67
2022/05/29 03:50:25;;;;;;;10.68;7.53;;;5.40;99.90;;;;;;5030702;28;20034;-70
2022/05/29 03:52:51;;;;;;;10.23;6.57;;;5.70;99.90;;;;;;5116052;27;20025;-66
2022/05/29 03:55:24;;;;;;;11.35;7.13;;;5.90;99.90;;;;;;5030603;28;20074;-66
2022/05/29 03:57:50;;;;;;;;;;;6.00;99.90;;;;;;5031106;28;20022;-66
2022/05/29 04:00:17;;;;;;;10.07;6.30;;;6.20;99.90;;;;;;5030718;28;19905;-70
2022/05/29 04:02:43;;;;;;;11.90;7.72;;;6.30;99.90;;;;;;5019636;28;20018;-70
2022/05/29 04:05:12;;;;;;;8.70;6.50;;;6.50;99.90;;;;;;5010775;28;20054;-68
2022/05/29 04:13:08;;;;;;;11.38;6.43;;;7.20;99.90;;;;;;5010946;28;20510;-68
2022/05/29 04:15:33;;;;;;;8.70;5.47;;;7.40;99.90;;;;;;5016597;28;20116;-72
2022/05/29 04:17:59;;;;;;;9.63;6.28;;;7.50;99.90;;;;;;5030360;28;20123;-70
2022/05/29 04:20:24;;;;;;;9.90;6.18;;;7.60;99.90;;;;;;5029161;28;20030;-69
2022/05/29 04:22:50;;;;;;;10.70;5.47;;;7.80;99.90;;;;;;5027479;28;20520;-72
2022/05/29 04:25:15;;;;;;;9.38;5.63;;;7.80;99.90;;;;;;5013408;28;20050;-68
2022/05/29 04:27:41;;;;;;;9.07;5.47;;;7.90;99.90;;;;;;5030354;28;20398;-72
2022/05/29 04:30:07;;;;;;;10.27;6.72;;;8.00;99.90;;;;;;5029021;28;20029;-72
2022/05/29 04:35:17;;;;;;;12.30;7.00;;;8.10;99.90;;;;;;5030138;28;20463;-68
2022/05/29 04:37:42;;;;;;;11.57;7.68;;;8.30;99.90;;;;;;5030316;28;20021;-69
2022/05/29 04:40:09;;;;;;;10.93;7.00;;;8.30;99.90;;;;;;5030054;28;20037;-72
2022/05/29 04:42:34;;;;;;;16.20;7.97;;;8.40;99.90;;;;;;5028899;28;20098;-72
2022/05/29 04:45:01;;;;;;;10.77;8.00;;;8.50;99.90;;;;;;5030148;28;20021;-69
2022/05/29 04:47:27;;;;;;;16.38;9.38;;;8.70;99.90;;;;;;5029984;28;20026;-69
2022/05/29 04:49:53;;;;;;;13.93;8.68;;;8.80;99.90;;;;;;5028668;28;20030;-69
2022/05/29 04:52:19;;;;;;;17.42;9.65;;;8.80;99.90;;;;;;5029909;28;20025;-69
2022/05/29 04:54:44;;;;;;;13.25;8.38;;;8.80;99.90;;;;;;5030044;28;20034;-72
2022/05/29 04:57:10;;;;;;;14.93;9.25;;;8.70;99.90;;;;;;5029923;28;20048;-69
2022/05/29 04:59:36;;;;;;;20.30;9.27;;;8.70;99.90;;;;;;5029777;28;20030;-73
2022/05/29 05:02:03;;;;;;;16.45;9.20;;;8.80;99.90;;;;;;5024210;28;20026;-69
2022/05/29 05:04:29;;;;;;;17.05;9.68;;;8.80;99.90;;;;;;5010193;28;20025;-73
2022/05/29 05:06:58;;;;;;;14.75;9.15;;;8.90;99.90;;;;;;5022634;28;20024;-73
2022/05/29 05:09:24;;;;;;;20.38;9.80;;;8.90;99.90;;;;;;5029752;28;20067;-69
2022/05/29 05:11:54;;;;;;;14.50;9.10;;;8.90;99.90;;;;;;5026146;28;20067;-69
2022/05/29 05:14:21;;;;;;;16.90;8.65;;;8.90;99.90;;;;;;5012509;28;20065;-69
2022/05/29 05:16:47;;;;;;;17.05;9.77;;;9.00;99.90;;;;;;5009842;28;20022;-69
2022/05/29 05:19:14;;;;;;;15.35;9.35;;;9.20;99.90;;;;;;5008709;28;20026;-69
2022/05/29 05:21:40;;;;;;;18.05;9.48;;;9.30;99.90;;;;;;5009348;28;20037;-69
2022/05/29 05:24:06;;;;;;;15.07;9.32;;;9.50;99.90;;;;;;5023766;28;20056;-70
2022/05/29 05:26:32;;;;;;;12.82;8.70;;;9.50;99.90;;;;;;5032989;28;20110;-69
2022/05/29 05:28:57;;;;;;;16.83;9.05;;;9.50;99.90;;;;;;5032802;28;20025;-69
2022/05/29 05:31:25;;;;;;;15.95;9.35;;;9.60;99.90;;;;;;5033003;28;20057;-69
2022/05/29 05:33:51;;;;;;;14.68;8.30;;;9.70;99.90;;;;;;5032776;28;20049;-69
2022/05/29 05:36:17;;;;;;;18.23;10.45;;;9.70;99.90;;;;;;5032922;28;20033;-69
2022/05/29 05:38:43;;;;;;;15.05;9.25;;;9.80;99.90;;;;;;5024548;28;20440;-74
2022/05/29 05:41:10;;;;;;;16.15;8.40;;;9.90;99.90;;;;;;5011756;28;20018;-74
2022/05/29 05:43:36;;;;;;;18.42;8.20;;;10.00;99.90;;;;;;5012755;28;20026;-74
2022/05/29 05:46:05;;;;;;;11.15;8.38;;;10.10;99.90;;;;;;5012972;28;20029;-69
2022/05/29 05:48:30;;;;;;;17.50;8.68;;;10.20;99.90;;;;;;5011617;28;20049;-69
2022/05/29 05:50:57;;;;;;;16.27;9.05;;;10.30;99.90;;;;;;5016616;28;20435;-74
2022/05/29 05:53:23;;;;;;;13.68;7.28;;;10.50;99.90;;;;;;5020052;28;20047;-73
2022/05/29 05:55:49;;;;;;;15.48;7.65;;;10.70;99.90;;;;;;5012712;28;20037;-69
2022/05/29 05:58:15;;;;;;;11.75;6.63;;;10.80;99.10;;;;;;5012925;28;20018;-73
2022/05/29 06:00:43;;;;;;;15.65;5.80;;;10.80;92.00;;;;;;5025607;28;20026;-69
2022/05/29 06:03:09;;;;;;;11.73;5.85;;;10.80;88.70;;;;;;5031936;28;20022;-69
2022/05/29 06:05:34;;;;;;;13.05;5.95;;;10.70;88.70;;;;;;5032143;28;20033;-69
2022/05/29 06:08:00;;;;;;;12.68;6.22;;;10.80;90.30;;;;;;5032113;28;20032;-74
2022/05/29 06:10:26;;;;;;;22.48;7.22;;;10.80;87.80;;;;;;5030595;28;20018;-70
2022/05/29 06:12:52;;;;;;;11.60;5.53;;;10.90;88.30;;;;;;5021279;28;20030;-70
2022/05/29 06:15:17;;;;;;;12.38;5.00;;;10.90;89.40;;;;;;5010984;28;20030;-70
2022/05/29 06:17:43;;;;;;;9.52;4.57;;;11.00;87.60;;;;;;5012200;28;20513;-74
2022/05/29 06:20:09;;;;;;;9.40;4.90;;;11.20;85.70;;;;;;5010841;28;20083;-74
2022/05/29 06:22:39;;;;;;;9.10;4.78;;;11.30;86.20;;;;;;5010958;28;20502;-74
2022/05/29 06:25:07;;;;;;;9.10;5.40;;;11.30;83.20;;;;;;5010416;28;20052;-74
2022/05/29 06:27:41;;;;;;;8.45;5.10;;;11.50;85.60;;;;;;5012144;28;20067;-74
2022/05/29 06:30:09;;;;;;;10.07;5.05;;;11.70;81.20;;;;;;5011868;28;20025;-72
2022/05/29 06:32:36;;;;;;;9.43;4.53;;;11.80;81.30;;;;;;5012086;28;20052;-72
2022/05/29 06:35:02;;;;;;;12.35;5.25;;;11.90;77.20;;;;;;5011704;28;20037;-72
2022/05/29 06:37:29;;;;;;;14.50;5.88;;;12.10;81.50;;;;;;5011814;28;20083;-72
2022/05/29 06:39:55;;;;;;;9.63;5.18;;;12.30;77.90;;;;;;5010471;28;20068;-72
2022/05/29 06:42:21;;;;;;;10.80;4.50;;;12.40;76.00;;;;;;5011855;28;20054;-72
2022/05/29 06:44:47;;;;;;;10.65;5.32;;;12.10;75.40;;;;;;5019467;28;20061;-68
2022/05/29 06:47:14;;;;;;;10.45;6.55;;;11.90;76.70;;;;;;5031292;28;20029;-69
2022/05/29 06:49:40;;;;;;;16.35;5.90;;;11.80;79.70;;;;;;5031169;28;20060;-68
2022/05/29 06:52:10;;;;;;;13.23;5.40;;;12.00;80.60;;;;;;5029932;28;20068;-68
2022/05/29 06:54:36;;;;;;;6.95;4.55;;;12.40;80.90;;;;;;5031174;28;20395;-68
2022/05/29 06:57:06;;;;;;;11.73;4.85;;;12.50;74.70;;;;;;5029875;28;20025;-70
2022/05/29 07:08:20;;;;;;;12.65;3.03;;;13.30;68.50;;;;;;5031788;28;20434;-68
2022/05/29 07:10:46;;;;;;;5.03;3.05;;;13.60;69.30;;;;;;5030913;28;20025;-67
2022/05/29 07:13:11;;;;;;;6.78;2.40;;;13.60;67.00;;;;;;5029418;28;20085;-70
2022/05/29 07:15:37;;;;;;;4.97;2.50;;;13.80;67.20;;;;;;5029288;28;20041;-67
2022/05/29 07:18:03;;;;;;;6.18;2.70;;;13.80;65.30;;;;;;5030793;28;20021;-68
2022/05/29 07:20:29;;;;;;;4.45;3.50;;;13.60;65.40;;;;;;5030635;28;20046;-67
2022/05/29 07:22:56;;;;;;;6.88;2.97;;;13.50;66.20;;;;;;5029390;28;20501;-71
2022/05/29 07:25:22;;;;;;;6.88;3.33;;;13.60;64.50;;;;;;5029262;28;20052;-67
2022/05/29 07:27:47;;;;;;;7.82;2.88;;;13.40;67.10;;;;;;5030691;28;20021;-68
2022/05/29 07:30:13;;;;;;;15.30;3.95;;;13.50;67.30;;;;;;5030387;28;20109;-67
2022/05/29 07:32:39;;;;;;;6.57;2.40;;;13.70;66.50;;;;;;5030813;28;20021;-68
2022/05/29 07:35:05;;;;;;;7.10;3.15;;;13.70;64.50;;;;;;5029621;28;20045;-67
2022/05/29 07:37:31;;;;;;;4.63;2.70;;;13.60;66.10;;;;;;5030532;28;20467;-68
2022/05/29 07:39:56;;;;;;;3.08;2.15;;;13.80;64.90;;;;;;5025145;28;20074;-67
2022/05/29 07:45:08;;;;;;;6.55;2.60;;;14.00;63.50;;;;;;5019936;28;20091;-71
2022/05/29 07:47:38;;;;;;;6.22;2.50;;;14.00;61.00;;;;;;5040779;28;20022;-72
2022/05/29 07:50:04;;;;;;;6.15;3.15;;;14.30;61.20;;;;;;5026393;28;20022;-67
2022/05/29 07:52:30;;;;;;;5.38;2.70;;;14.40;60.60;;;;;;5021907;28;20471;-71
2022/05/29 07:54:56;;;;;;;4.55;2.75;;;14.70;62.00;;;;;;5023197;28;20087;-71
2022/05/29 07:57:21;;;;;;;5.78;2.95;;;14.70;59.80;;;;;;5015859;28;20021;-67
2022/05/29 07:59:47;;;;;;;6.97;2.38;;;14.60;59.90;;;;;;5019135;28;20034;-67
2022/05/29 08:02:13;;;;;;;7.55;3.00;;;14.90;59.20;;;;;;5019875;28;20029;-72
2022/05/29 08:04:40;;;;;;;6.15;3.00;;;15.20;60.70;;;;;;5016620;28;20037;-71
2022/05/29 08:07:06;;;;;;;7.00;2.85;;;15.50;57.90;;;;;;5020697;28;20022;-72
2022/05/29 08:09:31;;;;;;;4.22;2.67;;;15.40;57.40;;;;;;5019204;28;20703;-71
2022/05/29 08:11:57;;;;;;;6.63;2.40;;;15.70;61.20;;;;;;5018152;28;20490;-74
2022/05/29 08:14:23;;;;;;;8.35;3.17;;;15.90;58.60;;;;;;5020985;28;20041;-69
2022/05/29 08:16:48;;;;;;;10.23;2.83;;;16.10;57.20;;;;;;5016294;28;20026;-74
2022/05/29 08:19:14;;;;;;;6.30;2.13;;;16.00;56.30;;;;;;5021849;28;20045;-69
2022/05/29 08:21:41;;;;;;;7.03;2.45;;;16.10;56.20;;;;;;5020539;28;20026;-69
2022/05/29 08:32:20;;;;;;;3.75;1.65;;;14.70;57.00;;;;;;5014553;28;20045;-69
2022/05/29 08:34:45;;;;;;;6.05;2.30;;;14.30;58.80;;;;;;5023408;28;20704;-69
2022/05/29 08:37:11;;;;;;;8.43;2.50;;;14.30;59.90;;;;;;5016179;28;20029;-69
2022/05/29 08:39:37;;;;;;;7.07;2.25;;;14.10;60.30;;;;;;5008884;28;20040;-67
2022/05/29 08:42:03;;;;;;;6.97;2.30;;;14.30;59.80;;;;;;5014812;28;20025;-67
2022/05/29 08:44:41;;;;;;;5.53;2.35;;;14.60;60.10;;;;;;5010162;28;20087;-67
2022/05/29 08:47:07;;;;;;;5.10;2.03;;;15.10;59.60;;;;;;5008172;28;20026;-68
2022/05/29 08:49:44;;;;;;;4.25;2.05;;;15.40;57.20;;;;;;5013603;28;20079;-67
2022/05/29 08:52:38;;;;;;;5.25;2.28;;;15.70;57.50;;;;;;5025571;28;20021;-74
2022/05/29 08:55:25;;;;;;;4.40;2.38;;;16.00;54.70;;;;;;5035410;28;20388;-69
2022/05/29 08:58:16;;;;;;;5.05;2.47;;;15.70;54.60;;;;;;5019431;28;20033;-75
2022/05/29 09:01:07;;;;;;;5.50;2.35;;;15.20;54.40;;;;;;5020939;28;20370;-73
2022/05/29 09:03:52;;;;;;;4.50;2.05;;;15.10;55.50;;;;;;5012431;28;20030;-74
2022/05/29 09:06:28;;;;;;;5.53;2.35;;;14.90;55.20;;;;;;5025224;28;20030;-74
2022/05/29 09:09:19;;;;;;;4.05;1.60;;;14.70;54.40;;;;;;5022747;28;20034;-69
2022/05/29 09:11:54;;;;;;;7.22;2.45;;;15.40;56.60;;;;;;5012410;28;20534;-74
2022/05/29 09:14:23;;;;;;;5.40;2.08;;;15.50;54.00;;;;;;5029371;27;20030;-69
2022/05/29 09:17:09;;;;;;;7.40;2.83;;;16.00;55.30;;;;;;5047873;28;20021;-69
2022/05/29 09:19:50;;;;;;;5.30;1.92;;;16.20;54.20;;;;;;5011777;28;20032;-74
2022/05/29 09:22:29;;;;;;;7.95;2.42;;;16.40;50.90;;;;;;5012811;28;20059;-74
2022/05/29 09:25:16;;;;;;;5.03;2.85;;;16.40;51.20;;;;;;5011259;28;20359;-69
2022/05/29 09:27:49;;;;;;;4.05;2.05;;;16.20;51.50;;;;;;5010158;28;20475;-69
2022/05/29 09:30:16;;;;;;;2.60;1.75;;;15.70;51.40;;;;;;5013383;28;20044;-69
2022/05/29 09:32:54;;;;;;;5.75;2.20;;;15.40;51.30;;;;;;5011781;28;20029;-69
2022/05/29 09:35:41;;;;;;;9.32;2.70;;;15.00;50.50;;;;;;5009308;28;20061;-73
2022/05/29 09:38:21;;;;;;;4.10;2.17;;;14.90;51.90;;;;;;5010767;28;20034;-69
2022/05/29 09:40:55;;;;;;;5.53;2.50;;;15.40;51.20;;;;;;5018580;28;20017;-69
2022/05/29 09:43:23;;;;;;;5.95;2.40;;;16.00;52.40;;;;;;5029800;28;20478;-69
2022/05/29 09:45:50;;;;;;;4.22;1.90;;;16.00;50.50;;;;;;5029835;28;20018;-70
2022/05/29 09:51:29;;;;;;;5.03;1.50;;;16.00;51.40;;;;;;5032889;28;20109;-69
2022/05/29 09:53:58;;;;;;;4.82;2.72;;;16.10;50.20;;;;;;5030614;28;20371;-69
2022/05/29 09:56:30;;;;;;;5.22;2.42;;;16.00;50.00;;;;;;5032319;28;20044;-70
2022/05/29 09:59:10;;;;;;;3.72;1.58;;;15.90;49.80;;;;;;5031478;28;20363;-74
2022/05/29 10:01:46;;;;;;;6.55;1.48;;;15.80;48.90;;;;;;5032581;28;20024;-69
2022/05/29 10:04:19;;;;;;;3.83;1.45;;;15.70;47.50;;;;;;5031281;28;20013;-69
2022/05/29 10:06:48;;;;;;;3.70;1.58;;;15.50;48.60;;;;;;5032278;28;20026;-69
2022/05/29 10:09:18;;;;;;;3.95;2.00;;;15.50;49.80;;;;;;5030796;28;20113;-69
2022/05/29 10:11:47;;;;;;;5.07;1.92;;;15.60;50.70;;;;;;5032430;28;20435;-74
2022/05/29 10:14:40;;;;;;;4.10;1.70;;;16.10;53.10;;;;;;5031092;28;20499;-69
2022/05/29 10:17:24;;;;;;;;;;;16.50;49.10;;;;;;5035581;28;20390;-74
2022/05/29 10:19:50;;;;;;;7.70;2.00;;;16.70;49.40;;;;;;5032366;28;20376;-69
2022/05/29 10:22:27;;;;;;;4.32;1.98;;;17.00;48.60;;;;;;5032246;28;20101;-69
2022/05/29 10:24:54;;;;;;;3.20;1.73;;;17.30;48.40;;;;;;5012555;28;20056;-70
2022/05/29 10:27:34;;;;;;;3.17;1.90;;;17.40;47.00;;;;;;5012368;28;20078;-70
2022/05/29 10:30:08;;;;;;;6.28;2.33;;;17.20;47.70;;;;;;5012589;28;20486;-74
2022/05/29 10:32:36;;;;;;;5.20;1.63;;;16.60;48.20;;;;;;5012135;28;20033;-69
2022/05/29 10:35:20;;;;;;;3.33;1.67;;;16.60;50.10;;;;;;5012352;28;20049;-74
2022/05/29 10:37:46;;;;;;;1.50;1.25;;;16.40;49.10;;;;;;5027481;28;20478;-69
2022/05/29 10:40:13;;;;;;;4.30;1.60;;;16.50;48.60;;;;;;5015772;28;20579;-70
2022/05/29 10:42:44;;;;;;;4.82;2.50;;;16.50;49.30;;;;;;5031860;28;20584;-74
2022/05/29 10:45:17;;;;;;;3.90;1.52;;;16.60;49.10;;;;;;5031925;28;20032;-73
2022/05/29 10:48:03;;;;;;;3.15;1.48;;;16.50;47.70;;;;;;5031814;28;20116;-74
2022/05/29 10:50:53;;;;;;;4.38;1.63;;;16.70;45.80;;;;;;5024310;28;20489;-69
2022/05/29 10:53:37;;;;;;;2.45;1.75;;;17.30;45.50;;;;;;5011986;28;20025;-69
2022/05/29 10:56:23;;;;;;;6.00;1.40;;;17.50;44.30;;;;;;5017847;28;20113;-74
2022/05/29 10:59:14;;;;;;;4.00;1.88;;;17.60;45.30;;;;;;5031328;28;20042;-69
2022/05/29 11:05:56;;;;;;;5.97;1.77;;;17.00;47.90;;;;;;5030834;28;20398;-77
2022/05/29 11:08:58;;;;;;;6.75;1.88;;;16.60;46.50;;;;;;4987990;28;20042;-78
2022/05/29 11:11:27;;;;;;;7.53;1.97;;;16.20;46.90;;;;;;5008919;28;20087;-78
2022/05/29 11:14:19;;;;;;;3.55;2.05;;;16.00;47.20;;;;;;5024225;28;20033;-77
2022/05/29 11:17:00;;;;;;;4.60;2.03;;;16.10;46.40;;;;;;5029669;28;20036;-78
2022/05/29 11:19:56;;;;;;;2.67;1.25;;;16.40;46.40;;;;;;5028612;28;20095;-78
2022/05/29 11:22:50;;;;;;;4.18;1.55;;;16.60;47.40;;;;;;5030974;28;20028;-77
2022/05/29 11:25:40;;;;;;;5.40;2.05;;;16.80;45.70;;;;;;5011101;28;20495;-77
2022/05/29 11:28:43;;;;;;;3.50;1.25;;;16.90;44.90;;;;;;5011070;28;20026;-77
2022/05/29 11:31:29;;;;;;;3.58;1.38;;;16.40;46.10;;;;;;5011245;28;20026;-77
2022/05/29 11:34:35;;;;;;;4.28;1.73;;;16.50;47.00;;;;;;5011051;28;20025;-77
2022/05/29 11:37:52;;;;;;;3.92;1.95;;;16.30;46.10;;;;;;5009885;28;20030;-77
2022/05/29 11:40:27;;;;;;;3.83;2.17;;;16.50;46.30;;;;;;4992338;28;20086;-78
2022/05/29 11:43:08;;;;;;;4.10;1.75;;;16.70;47.00;;;;;;5029427;28;20423;-77
2022/05/29 11:51:40;;;;;;;3.22;1.90;;;16.90;45.20;;;;;;5020830;28;20559;-77
2022/05/29 11:54:25;;;;;;;4.00;2.47;;;17.00;43.80;;;;;;5019491;28;20022;-78
2022/05/29 11:57:05;;;;;;;2.30;2.00;;;17.10;44.40;;;;;;5009435;28;20026;-78
2022/05/29 11:59:42;;;;;;;3.17;2.47;;;17.40;45.40;;;;;;5009463;28;20060;-78
2022/05/29 12:02:09;;;;;;;3.75;1.60;;;17.40;44.40;;;;;;5009662;28;20018;-77
2022/05/29 12:04:40;;;;;;;2.65;1.70;;;17.60;44.90;;;;;;5025695;28;20042;-79
2022/05/29 12:07:12;;;;;;;4.32;1.60;;;17.70;45.10;;;;;;5009623;28;20074;-79
2022/05/29 12:09:46;;;;;;;2.88;2.03;;;17.80;45.80;;;;;;5010468;28;20379;-79
2022/05/29 12:12:20;;;;;;;2.63;1.83;;;17.70;45.90;;;;;;5009278;28;20022;-79
2022/05/29 12:14:58;;;;;;;4.13;1.52;;;17.50;45.70;;;;;;5025633;28;20026;-79
2022/05/29 12:17:45;;;;;;;4.35;1.80;;;17.00;46.10;;;;;;5009162;28;20025;-79
2022/05/29 12:20:23;;;;;;;2.42;1.80;;;17.00;44.70;;;;;;5009243;28;20021;-78
2022/05/29 12:22:55;;;;;;;4.78;1.73;;;17.10;45.00;;;;;;5016464;28;20025;-78
2022/05/29 12:25:39;;;;;;;8.73;2.03;;;17.30;45.30;;;;;;5020064;28;20053;-78
2022/05/29 12:28:13;;;;;;;5.13;1.42;;;17.10;46.50;;;;;;5024846;28;20125;-78
2022/05/29 12:30:41;;;;;;;3.90;1.80;;;17.40;45.70;;;;;;5017903;28;20029;-78
2022/05/29 12:33:16;;;;;;;5.43;1.80;;;17.30;46.50;;;;;;5023072;28;20024;-78
2022/05/29 12:36:05;;;;;;;4.40;1.48;;;17.30;45.40;;;;;;5018642;28;20101;-78
2022/05/29 12:38:55;;;;;;;6.70;1.92;;;17.20;45.60;;;;;;5012540;28;20079;-78
2022/05/29 12:41:51;;;;;;;3.03;1.75;;;17.10;45.60;;;;;;5020200;28;20112;-79
2022/05/29 12:44:33;;;;;;;12.13;6.25;;;17.10;45.80;;;;;;5023077;28;20025;-79
2022/05/29 12:47:01;;;;;;;3.75;2.33;;;17.30;46.40;;;;;;5022022;28;20033;-79
2022/05/29 12:49:54;;;;;;;4.30;1.70;;;17.50;45.20;;;;;;5020325;28;20022;-79
2022/05/29 12:52:35;;;;;;;4.43;1.75;;;17.70;43.70;;;;;;5015222;28;20124;-78
2022/05/29 12:55:08;;;;;;;4.60;1.80;;;17.60;44.10;;;;;;5025631;28;20116;-78
2022/05/29 12:57:40;;;;;;;4.82;1.90;;;17.70;45.20;;;;;;5032457;28;20545;-79
2022/05/29 13:00:30;;;;;;;4.05;2.00;;;17.40;44.00;;;;;;5017318;28;20026;-78
2022/05/29 13:03:19;;;;;;;4.22;2.03;;;17.30;45.00;;;;;;5028530;28;20040;-78
2022/05/29 13:06:13;;;;;;;3.53;1.35;;;17.40;45.10;;;;;;5031685;28;20197;-78
2022/05/29 13:09:13;;;;;;;4.70;2.08;;;17.40;44.10;;;;;;5032639;28;20017;-77
2022/05/29 13:11:47;;;;;;;4.72;1.90;;;17.60;44.20;;;;;;5022568;28;20037;-82
2022/05/29 13:14:17;;;;;;;2.60;1.60;;;17.70;45.40;;;;;;5018173;28;20493;-79
2022/05/29 13:16:44;;;;;;;5.72;1.70;;;17.80;45.00;;;;;;5027107;28;20038;-77
2022/05/29 13:19:21;;;;;;;3.50;1.60;;;17.90;45.30;;;;;;5020088;28;20075;-78
2022/05/29 13:22:02;;;;;;;6.00;1.70;;;18.00;45.20;;;;;;5022146;28;20045;-77
2022/05/29 13:24:38;;;;;;;5.53;2.03;;;17.90;44.10;;;;;;5028622;28;20032;-78
2022/05/29 13:27:12;;;;;;;4.13;1.65;;;17.90;43.80;;;;;;5025272;28;20406;-78
2022/05/29 13:29:54;;;;;;;4.88;2.08;;;18.20;44.10;;;;;;5021047;28;20494;-76
2022/05/29 13:32:24;;;;;;;5.37;2.30;;;18.40;45.40;;;;;;5047425;28;20113;-77
2022/05/29 13:35:02;;;;;;;7.78;1.70;;;18.50;45.70;;;;;;5019441;28;20796;-78
2022/05/29 13:37:49;;;;;;;2.88;1.75;;;18.40;43.30;;;;;;5009952;28;20117;-77
2022/05/29 13:40:21;;;;;;;4.38;1.50;;;18.20;42.90;;;;;;5024246;28;20100;-79
2022/05/29 13:42:50;;;;;;;5.47;1.92;;;18.20;44.70;;;;;;5014711;28;20125;-78
2022/05/29 13:45:18;;;;;;;2.85;1.80;;;18.10;44.70;;;;;;5022421;28;20040;-79
2022/05/29 13:47:47;;;;;;;3.30;2.40;;;17.80;45.50;;;;;;5027719;28;20056;-79
2022/05/29 13:50:13;;;;;;;3.30;1.67;;;17.70;46.30;;;;;;5024809;28;20604;-79
2022/05/29 13:52:46;;;;;;;5.57;1.63;;;17.70;45.20;;;;;;5022334;28;20070;-79
2022/05/29 13:55:17;;;;;;;1.50;1.40;;;17.70;45.50;;;;;;5022387;28;20029;-79
2022/05/29 14:03:59;;;;;;;3.17;1.80;;;17.60;46.60;;;;;;5022225;28;20040;-78
2022/05/29 14:06:32;;;;;;;3.17;2.03;;;17.40;47.00;;;;;;5021431;28;20097;-78